createdAt,value
2019-02-17T00:01:46.715Z,67.60
2019-02-17T00:04:16.391Z,61.95
2019-02-17T00:06:46.164Z,59.27
2019-02-17T00:09:17.774Z,47.73
2019-02-17T00:11:47.427Z,48.58
2019-02-17T00:14:17.166Z,45.73
2019-02-17T00:16:46.812Z,52.23
2019-02-17T00:19:16.507Z,50.85
2019-02-17T00:21:46.206Z,52.20
2019-02-17T00:24:15.839Z,51.75
2019-02-17T00:26:46.506Z,54.25
2019-02-17T00:29:16.375Z,52.25
2019-02-17T00:31:46.034Z,57.90
2019-02-17T00:34:15.716Z,47.33
2019-02-17T00:36:45.414Z,53.02
2019-02-17T00:39:15.135Z,40.35
2019-02-17T00:41:44.911Z,41.35
2019-02-17T00:44:14.680Z,40.40
2019-02-17T00:46:44.308Z,38.88
2019-02-17T00:49:14.052Z,42.95
2019-02-17T00:51:46.970Z,44.75
2019-02-17T00:54:16.674Z,49.53
2019-02-17T00:56:46.330Z,52.20
2019-02-17T00:59:15.987Z,50.65
2019-02-17T01:01:45.687Z,52.33
2019-02-17T01:04:15.459Z,48.78
2019-02-17T01:06:45.220Z,45.28
2019-02-17T01:09:14.871Z,45.40
2019-02-17T01:11:44.675Z,48.87
2019-02-17T01:14:14.390Z,48.85
2019-02-17T01:16:44.168Z,44.55
2019-02-17T01:19:13.939Z,50.65
2019-02-17T01:21:43.947Z,47.50
2019-02-17T01:24:14.217Z,44.80
2019-02-17T01:26:43.888Z,42.08
2019-02-17T01:29:20.127Z,40.12
2019-02-17T01:31:44.872Z,38.70
2019-02-17T01:34:14.659Z,37.93
2019-02-17T01:36:44.538Z,43.78
2019-02-17T01:39:14.233Z,49.10
2019-02-17T01:41:43.994Z,51.28
2019-02-17T01:44:13.728Z,49.20
2019-02-17T01:46:43.619Z,48.28
2019-02-17T01:49:13.324Z,49.88
2019-02-17T01:51:43.124Z,48.63
2019-02-17T01:54:12.832Z,57.35
2019-02-17T01:56:42.502Z,48.13
2019-02-17T01:59:12.203Z,45.05
2019-02-17T02:01:41.869Z,52.20
2019-02-17T02:04:11.706Z,50.90
2019-02-17T02:06:41.518Z,48.30
2019-02-17T02:09:11.586Z,52.00
2019-02-17T02:11:41.259Z,53.00
2019-02-17T02:14:10.916Z,52.98
2019-02-17T02:16:40.589Z,57.70
2019-02-17T02:19:10.234Z,47.62
2019-02-17T02:21:39.991Z,49.75
2019-02-17T02:24:09.654Z,49.73
2019-02-17T02:26:39.306Z,54.38
2019-02-17T02:29:09.013Z,50.25
2019-02-17T02:31:38.639Z,49.90
2019-02-17T02:34:08.411Z,45.48
2019-02-17T02:36:38.103Z,50.00
2019-02-17T02:39:08.438Z,51.33
2019-02-17T02:41:38.125Z,48.60
2019-02-17T02:44:07.832Z,48.33
2019-02-17T02:46:37.506Z,50.83
2019-02-17T02:49:07.177Z,48.28
2019-02-17T02:51:36.864Z,46.68
2019-02-17T02:54:06.532Z,46.53
2019-02-17T02:56:36.244Z,48.02
2019-02-17T02:59:05.996Z,50.85
2019-02-17T03:01:35.717Z,49.42
2019-02-17T03:04:05.395Z,54.00
2019-02-17T03:06:46.151Z,49.15
2019-02-17T03:09:15.847Z,53.75
2019-02-17T03:11:45.572Z,52.48
2019-02-17T03:14:15.211Z,52.30
2019-02-17T03:16:44.866Z,52.65
2019-02-17T03:19:14.563Z,55.33
2019-02-17T03:21:44.266Z,52.50
2019-02-17T03:24:13.989Z,51.95
2019-02-17T03:26:43.671Z,57.62
2019-02-17T03:29:13.394Z,55.80
2019-02-17T03:31:43.069Z,54.55
2019-02-17T03:34:12.711Z,56.28
2019-02-17T03:36:42.510Z,55.92
2019-02-17T03:39:12.146Z,52.25
2019-02-17T03:41:41.866Z,52.53
2019-02-17T03:44:11.616Z,50.67
2019-02-17T03:46:41.337Z,53.23
2019-02-17T03:49:11.169Z,53.50
2019-02-17T03:51:40.875Z,53.17
2019-02-17T03:54:10.614Z,53.15
2019-02-17T03:56:40.295Z,55.10
2019-02-17T03:59:09.987Z,55.55
2019-02-17T04:01:39.789Z,52.30
2019-02-17T04:04:09.496Z,54.67
2019-02-17T04:06:39.226Z,49.90
2019-02-17T04:09:09.665Z,49.10
2019-02-17T04:11:39.337Z,55.43
2019-02-17T04:14:08.977Z,52.62
2019-02-17T04:16:38.730Z,49.50
2019-02-17T04:19:08.446Z,42.50
2019-02-17T04:21:38.187Z,44.95
2019-02-17T04:24:07.875Z,41.08
2019-02-17T04:26:37.701Z,40.55
2019-02-17T04:29:10.151Z,41.75
2019-02-17T04:31:38.680Z,39.78
2019-02-17T04:34:08.371Z,40.25
2019-02-17T04:36:38.023Z,41.85
2019-02-17T04:39:07.756Z,38.23
2019-02-17T04:41:37.407Z,40.48
2019-02-17T04:44:07.128Z,37.63
2019-02-17T04:46:36.897Z,40.50
2019-02-17T04:49:06.646Z,41.02
2019-02-17T04:51:36.299Z,38.92
2019-02-17T04:54:05.939Z,39.30
2019-02-17T04:56:35.647Z,43.45
2019-02-17T04:59:05.306Z,43.08
2019-02-17T05:01:35.004Z,47.20
2019-02-17T05:04:04.673Z,49.55
2019-02-17T05:06:34.481Z,49.48
2019-02-17T05:09:05.883Z,44.45
2019-02-17T05:11:35.599Z,42.00
2019-02-17T05:14:05.293Z,41.15
2019-02-17T05:16:34.956Z,41.13
2019-02-17T05:19:04.683Z,41.73
2019-02-17T05:21:34.389Z,41.88
2019-02-17T05:24:04.101Z,40.08
2019-02-17T05:26:33.821Z,49.53
2019-02-17T05:29:03.495Z,44.65
2019-02-17T05:31:33.283Z,42.08
2019-02-17T05:34:03.039Z,38.78
2019-02-17T05:36:32.753Z,41.23
2019-02-17T05:39:02.447Z,46.75
2019-02-17T05:41:32.088Z,43.00
2019-02-17T05:44:01.782Z,39.73
2019-02-17T05:46:31.539Z,44.05
2019-02-17T05:49:01.258Z,40.83
2019-02-17T05:51:30.915Z,39.00
2019-02-17T05:54:00.714Z,37.67
2019-02-17T05:56:30.509Z,41.95
2019-02-17T05:59:00.215Z,42.23
2019-02-17T06:01:30.147Z,47.00
2019-02-17T06:03:59.792Z,46.40
2019-02-17T06:06:29.415Z,44.88
2019-02-17T06:08:59.102Z,46.25
2019-02-17T06:11:31.120Z,40.28
2019-02-17T06:14:00.861Z,39.20
2019-02-17T06:16:30.522Z,39.20
2019-02-17T06:19:00.187Z,37.75
2019-02-17T06:21:30.002Z,39.15
2019-02-17T06:23:59.755Z,37.25
2019-02-17T06:26:29.514Z,35.63
2019-02-17T06:28:59.177Z,34.78
2019-02-17T06:31:28.855Z,32.95
2019-02-17T06:33:58.605Z,30.70
2019-02-17T06:36:28.251Z,33.60
2019-02-17T06:38:57.911Z,34.65
2019-02-17T06:41:27.560Z,41.80
2019-02-17T06:43:58.780Z,36.70
2019-02-17T06:46:32.409Z,39.00
2019-02-17T06:49:02.208Z,35.40
2019-02-17T06:51:31.863Z,31.10
2019-02-17T06:54:01.592Z,33.08
2019-02-17T06:56:41.668Z,33.40
2019-02-17T06:59:11.311Z,33.28
2019-02-17T07:01:41.026Z,32.78
2019-02-17T07:04:10.684Z,35.23
2019-02-17T07:06:47.273Z,33.95
2019-02-17T07:09:16.983Z,30.77
2019-02-17T07:11:46.788Z,30.82
2019-02-17T07:14:16.435Z,30.20
2019-02-17T07:16:46.124Z,32.95
2019-02-17T07:19:15.772Z,32.90
2019-02-17T07:21:45.427Z,31.85
2019-02-17T07:24:15.154Z,30.85
2019-02-17T07:26:44.810Z,31.07
2019-02-17T07:29:16.692Z,29.10
2019-02-17T07:31:45.846Z,32.15
2019-02-17T07:34:15.544Z,30.43
2019-02-17T07:36:45.194Z,30.62
2019-02-17T07:39:14.838Z,31.15
2019-02-17T07:41:44.591Z,28.45
2019-02-17T07:44:14.355Z,28.15
2019-02-17T07:46:44.152Z,27.02
2019-02-17T07:49:13.810Z,25.82
2019-02-17T07:51:43.604Z,25.12
2019-02-17T07:54:13.302Z,23.77
2019-02-17T07:56:43.011Z,23.32
2019-02-17T07:59:12.792Z,23.42
2019-02-17T08:01:45.332Z,23.83
2019-02-17T08:04:13.850Z,22.15
2019-02-17T08:06:43.536Z,24.23
2019-02-17T08:09:13.231Z,21.37
2019-02-17T08:11:42.955Z,23.30
2019-02-17T08:14:12.668Z,22.27
2019-02-17T08:16:42.315Z,24.77
2019-02-17T08:19:12.064Z,24.80
2019-02-17T08:21:41.756Z,23.80
2019-02-17T08:24:11.444Z,29.92
2019-02-17T08:26:41.150Z,21.35
2019-02-17T08:29:10.824Z,20.23
2019-02-17T08:31:40.506Z,19.50
2019-02-17T08:34:10.184Z,17.62
2019-02-17T08:36:39.923Z,16.12
2019-02-17T08:39:09.561Z,15.75
2019-02-17T08:41:39.215Z,15.50
2019-02-17T08:44:08.933Z,15.68
2019-02-17T08:46:38.675Z,14.80
2019-02-17T08:49:08.380Z,16.97
2019-02-17T08:51:38.027Z,15.98
2019-02-17T08:54:07.763Z,15.28
2019-02-17T08:56:37.577Z,16.32
2019-02-17T08:59:07.310Z,16.10
2019-02-17T09:01:37.142Z,18.15
2019-02-17T09:04:06.816Z,16.77
2019-02-17T09:06:36.522Z,16.55
2019-02-17T09:09:06.924Z,17.55
2019-02-17T09:11:36.696Z,16.10
2019-02-17T09:14:06.368Z,16.65
2019-02-17T09:16:36.094Z,15.80
2019-02-17T09:19:05.767Z,14.75
2019-02-17T09:21:35.450Z,18.17
2019-02-17T09:24:05.167Z,15.30
2019-02-17T09:26:34.843Z,17.25
2019-02-17T09:29:04.606Z,15.65
2019-02-17T09:31:34.341Z,14.93
2019-02-17T09:34:04.016Z,17.10
2019-02-17T09:36:33.698Z,15.80
2019-02-17T09:39:04.943Z,14.65
2019-02-17T09:41:34.666Z,15.50
2019-02-17T09:44:04.423Z,16.30
2019-02-17T09:46:34.112Z,15.45
2019-02-17T09:49:03.946Z,15.08
2019-02-17T09:51:33.707Z,14.80
2019-02-17T09:54:03.521Z,13.55
2019-02-17T09:56:33.218Z,12.65
2019-02-17T09:59:03.034Z,16.42
2019-02-17T10:01:32.699Z,15.20
2019-02-17T10:04:02.429Z,16.65
2019-02-17T10:06:32.123Z,13.70
2019-02-17T10:09:01.856Z,15.58
2019-02-17T10:11:31.542Z,16.27
2019-02-17T10:14:01.252Z,15.23
2019-02-17T10:16:31.054Z,15.28
2019-02-17T10:19:00.730Z,17.20
2019-02-17T10:21:30.438Z,15.45
2019-02-17T10:24:00.162Z,15.53
2019-02-17T10:26:30.026Z,15.23
2019-02-17T10:28:59.730Z,18.30
2019-02-17T10:31:29.441Z,15.38
2019-02-17T10:33:59.143Z,16.15
2019-02-17T10:36:28.849Z,14.80
2019-02-17T10:38:59.953Z,16.17
2019-02-17T10:41:29.642Z,16.17
2019-02-17T10:43:59.373Z,17.82
2019-02-17T10:46:29.088Z,15.60
2019-02-17T10:48:59.106Z,17.52
2019-02-17T10:51:28.876Z,19.80
2019-02-17T10:54:00.590Z,16.42
2019-02-17T10:56:30.290Z,15.83
2019-02-17T10:59:00.005Z,14.07
2019-02-17T11:01:29.674Z,11.70
2019-02-17T11:04:10.288Z,11.55
2019-02-17T11:06:41.308Z,12.58
2019-02-17T11:09:23.065Z,10.85
2019-02-17T11:11:53.318Z,12.30
2019-02-17T11:14:23.030Z,10.82
2019-02-17T11:16:52.869Z,10.60
2019-02-17T11:19:22.602Z,11.73
2019-02-17T11:21:52.257Z,10.93
2019-02-17T11:24:21.983Z,12.30
2019-02-17T11:26:51.724Z,12.70
2019-02-17T11:29:21.515Z,11.93
2019-02-17T11:31:51.155Z,12.00
2019-02-17T11:34:20.906Z,11.68
2019-02-17T11:36:50.783Z,10.50
2019-02-17T11:39:21.413Z,10.23
2019-02-17T11:41:51.846Z,10.53
2019-02-17T11:44:21.518Z,11.55
2019-02-17T11:46:51.287Z,10.50
2019-02-17T11:49:21.048Z,10.50
2019-02-17T11:52:02.283Z,12.30
2019-02-17T11:54:27.991Z,12.47
2019-02-17T11:57:02.024Z,11.68
2019-02-17T11:59:31.674Z,12.40
2019-02-17T12:02:03.691Z,12.20
2019-02-17T12:04:33.702Z,11.97
2019-02-17T12:07:03.480Z,12.98
2019-02-17T12:09:33.672Z,10.43
2019-02-17T12:12:03.463Z,11.40
2019-02-17T12:14:34.796Z,11.70
2019-02-17T12:17:04.552Z,12.58
2019-02-17T12:19:34.299Z,11.68
2019-02-17T12:22:38.594Z,11.70
2019-02-17T12:25:20.887Z,11.75
2019-02-17T12:28:01.677Z,12.40
2019-02-17T12:30:31.457Z,12.50
2019-02-17T12:33:04.659Z,12.33
2019-02-17T12:35:36.049Z,11.33
2019-02-17T12:38:07.227Z,12.90
2019-02-17T12:40:37.000Z,11.95
2019-02-17T12:43:07.729Z,12.30
2019-02-17T12:45:38.220Z,11.65
2019-02-17T12:48:08.036Z,11.65
2019-02-17T12:50:37.834Z,11.50
2019-02-17T12:53:09.608Z,11.57
2019-02-17T12:55:41.246Z,10.70
2019-02-17T12:58:10.952Z,10.28
2019-02-17T13:00:40.885Z,10.65
2019-02-17T13:03:10.767Z,9.90
2019-02-17T13:05:42.587Z,10.00
2019-02-17T13:08:12.466Z,10.60
2019-02-17T13:10:42.314Z,10.25
2019-02-17T13:13:11.984Z,9.18
2019-02-17T13:15:44.614Z,9.18
2019-02-17T13:18:14.580Z,10.68
2019-02-17T13:20:44.319Z,10.18
2019-02-17T13:23:14.234Z,11.18
2019-02-17T13:25:44.078Z,12.30
2019-02-17T13:28:13.934Z,9.93
2019-02-17T13:30:43.872Z,10.00
2019-02-17T13:33:13.961Z,9.45
2019-02-17T13:35:43.747Z,7.92
2019-02-17T13:38:13.649Z,9.23
2019-02-17T13:40:43.387Z,10.45
2019-02-17T13:43:13.067Z,10.55
2019-02-17T13:45:44.758Z,9.40
2019-02-17T13:48:14.352Z,8.88
2019-02-17T13:50:44.166Z,9.70
2019-02-17T13:53:14.017Z,10.55
2019-02-17T13:55:43.727Z,8.75
2019-02-17T13:58:13.439Z,11.57
2019-02-17T14:00:43.267Z,9.70
2019-02-17T14:03:12.971Z,8.38
2019-02-17T14:05:42.656Z,10.35
2019-02-17T14:08:12.478Z,9.60
2019-02-17T14:10:42.126Z,11.38
2019-02-17T14:13:11.822Z,10.98
2019-02-17T14:15:41.550Z,9.75
2019-02-17T14:18:11.226Z,9.83
2019-02-17T14:20:40.997Z,10.85
2019-02-17T14:23:10.877Z,11.97
2019-02-17T14:25:40.600Z,11.48
2019-02-17T14:28:10.316Z,11.57
2019-02-17T14:30:40.067Z,11.20
2019-02-17T14:33:09.797Z,10.70
2019-02-17T14:35:39.532Z,10.90
2019-02-17T14:38:09.349Z,9.98
2019-02-17T14:40:39.051Z,9.95
2019-02-17T14:43:08.794Z,9.90
2019-02-17T14:45:38.633Z,9.95
2019-02-17T14:48:08.351Z,10.60
2019-02-17T14:50:38.046Z,9.75
2019-02-17T14:53:07.806Z,10.50
2019-02-17T14:55:37.599Z,10.05
2019-02-17T14:58:07.242Z,11.80
2019-02-17T15:00:37.072Z,9.73
2019-02-17T15:03:06.772Z,11.70
2019-02-17T15:05:36.447Z,10.28
2019-02-17T15:08:06.196Z,12.90
2019-02-17T15:10:35.876Z,11.65
2019-02-17T15:13:05.548Z,10.82
2019-02-17T15:15:35.295Z,10.43
2019-02-17T15:18:05.043Z,9.65
2019-02-17T15:20:34.802Z,9.43
2019-02-17T15:23:04.509Z,10.93
2019-02-17T15:25:34.212Z,10.43
2019-02-17T15:28:04.011Z,12.80
2019-02-17T15:30:33.698Z,10.80
2019-02-17T15:33:04.376Z,11.38
2019-02-17T15:35:34.283Z,9.05
2019-02-17T15:38:03.934Z,9.95
2019-02-17T15:40:33.662Z,11.35
2019-02-17T15:43:03.437Z,10.10
2019-02-17T15:45:33.147Z,11.03
2019-02-17T15:48:04.245Z,10.58
2019-02-17T15:50:34.030Z,10.55
2019-02-17T15:53:03.969Z,11.25
2019-02-17T15:55:33.631Z,10.53
2019-02-17T15:58:03.478Z,11.65
2019-02-17T16:00:33.245Z,11.43
2019-02-17T16:03:03.028Z,13.40
2019-02-17T16:05:32.815Z,14.78
2019-02-17T16:08:02.535Z,12.90
2019-02-17T16:10:32.250Z,11.75
2019-02-17T16:13:01.960Z,13.38
2019-02-17T16:15:31.884Z,12.85
2019-02-17T16:18:01.723Z,15.38
2019-02-17T16:20:31.415Z,15.23
2019-02-17T16:23:01.233Z,19.55
2019-02-17T16:25:30.914Z,19.45
2019-02-17T16:28:01.285Z,19.62
2019-02-17T16:30:31.012Z,15.15
2019-02-17T16:33:00.801Z,13.90
2019-02-17T16:35:30.719Z,12.70
2019-02-17T16:38:01.073Z,12.90
2019-02-17T16:40:32.044Z,13.25
2019-02-17T16:43:02.463Z,14.55
2019-02-17T16:45:32.364Z,18.90
2019-02-17T16:48:02.089Z,22.02
2019-02-17T16:50:31.889Z,22.60
2019-02-17T16:53:02.198Z,22.02
2019-02-17T16:55:34.435Z,24.27
2019-02-17T16:58:04.181Z,20.02
2019-02-17T17:00:33.973Z,20.45
2019-02-17T17:03:03.801Z,17.77
2019-02-17T17:05:33.660Z,19.00
2019-02-17T17:08:04.619Z,19.95
2019-02-17T17:10:34.354Z,25.55
2019-02-17T17:13:04.067Z,27.75
2019-02-17T17:15:33.811Z,27.40
2019-02-17T17:18:03.640Z,39.48
2019-02-17T17:20:33.436Z,64.42
2019-02-17T17:23:05.143Z,43.13
2019-02-17T17:25:34.497Z,50.50
2019-02-17T17:28:13.521Z,55.10
2019-02-17T17:30:46.015Z,48.70
2019-02-17T17:33:15.724Z,30.95
2019-02-17T17:35:45.372Z,30.90
2019-02-17T17:38:15.108Z,48.50
2019-02-17T17:40:44.833Z,53.38
2019-02-17T17:43:14.524Z,38.88
2019-02-17T17:45:44.372Z,38.63
2019-02-17T17:48:14.038Z,33.85
2019-02-17T17:50:43.927Z,39.60
2019-02-17T17:53:13.642Z,39.55
2019-02-17T17:55:43.351Z,33.33
2019-02-17T17:58:13.103Z,38.02
2019-02-17T18:00:43.591Z,39.70
2019-02-17T18:03:13.616Z,35.73
2019-02-17T18:05:43.255Z,32.00
2019-02-17T18:08:13.311Z,39.80
2019-02-17T18:10:42.960Z,33.58
2019-02-17T18:13:12.681Z,35.03
2019-02-17T18:15:42.377Z,35.65
2019-02-17T18:18:12.054Z,31.10
2019-02-17T18:20:41.818Z,33.05
2019-02-17T18:23:12.136Z,34.75
2019-02-17T18:25:41.934Z,35.80
2019-02-17T18:28:11.715Z,31.42
2019-02-17T18:30:41.487Z,34.53
2019-02-17T18:33:11.167Z,35.30
2019-02-17T18:35:40.868Z,34.55
2019-02-17T18:38:10.626Z,34.60
2019-02-17T18:40:45.087Z,34.78
2019-02-17T18:43:11.737Z,38.48
2019-02-17T18:45:41.441Z,42.80
2019-02-17T18:48:11.268Z,40.48
2019-02-17T18:50:40.970Z,38.90
2019-02-17T18:53:10.681Z,41.77
2019-02-17T18:55:40.388Z,38.38
2019-02-17T18:58:10.120Z,39.90
2019-02-17T19:00:45.629Z,34.23
2019-02-17T19:03:32.111Z,38.10
2019-02-17T19:06:06.608Z,33.78
2019-02-17T19:08:38.340Z,37.17
2019-02-17T19:11:08.574Z,39.48
2019-02-17T19:13:38.352Z,36.93
2019-02-17T19:16:08.075Z,36.95
2019-02-17T19:18:38.182Z,36.53
2019-02-17T19:21:07.898Z,33.92
2019-02-17T19:23:37.839Z,35.15
2019-02-17T19:26:07.587Z,38.92
2019-02-17T19:28:38.953Z,38.83
2019-02-17T19:31:08.774Z,39.25
2019-02-17T19:33:38.934Z,37.85
2019-02-17T19:36:09.101Z,35.90
2019-02-17T19:38:40.682Z,37.85
2019-02-17T19:41:10.402Z,36.30
2019-02-17T19:43:40.134Z,38.02
2019-02-17T19:46:10.223Z,41.60
2019-02-17T19:48:40.006Z,52.00
2019-02-17T19:51:09.993Z,43.02
2019-02-17T19:53:40.474Z,37.73
2019-02-17T19:56:11.345Z,40.78
2019-02-17T19:58:43.761Z,38.70
2019-02-17T20:01:15.678Z,38.15
2019-02-17T20:04:15.383Z,41.28
2019-02-17T20:06:45.119Z,38.58
2019-02-17T20:09:20.166Z,40.88
2019-02-17T20:11:52.189Z,40.35
2019-02-17T20:14:24.090Z,43.50
2019-02-17T20:16:55.435Z,44.98
2019-02-17T20:19:25.740Z,57.17
2019-02-17T20:21:55.750Z,72.95
2019-02-17T20:24:26.690Z,73.78
2019-02-17T20:26:56.913Z,68.02
2019-02-17T20:29:27.152Z,66.33
2019-02-17T20:31:57.398Z,67.50
2019-02-17T20:34:27.503Z,46.05
2019-02-17T20:36:57.194Z,73.92
2019-02-17T20:39:28.228Z,51.20
2019-02-17T20:41:58.415Z,78.62
2019-02-17T20:44:28.303Z,70.05
2019-02-17T20:46:58.155Z,66.75
2019-02-17T20:49:27.907Z,61.33
2019-02-17T20:51:59.943Z,59.20
2019-02-17T20:54:29.778Z,60.17
2019-02-17T20:57:00.946Z,59.20
2019-02-17T20:59:30.683Z,61.77
2019-02-17T21:02:00.430Z,94.40
2019-02-17T21:04:30.173Z,101.18
2019-02-17T21:06:59.936Z,111.25
2019-02-17T21:09:29.956Z,101.78
2019-02-17T21:11:59.844Z,97.10
2019-02-17T21:14:29.704Z,93.52
2019-02-17T21:16:59.379Z,75.25
2019-02-17T21:19:29.211Z,85.30
2019-02-17T21:22:01.634Z,67.65
2019-02-17T21:24:31.825Z,61.45
2019-02-17T21:27:02.039Z,69.90
2019-02-17T21:29:31.898Z,81.72
2019-02-17T21:32:01.740Z,84.10
2019-02-17T21:34:31.566Z,88.62
2019-02-17T21:37:01.362Z,88.62
2019-02-17T21:39:31.348Z,89.35
2019-02-17T21:42:01.023Z,87.50
2019-02-17T21:44:30.748Z,94.00
2019-02-17T21:47:00.641Z,94.62
2019-02-17T21:49:31.543Z,80.77
2019-02-17T21:52:01.318Z,84.55
2019-02-17T21:54:31.087Z,86.45
2019-02-17T21:57:00.921Z,101.35
2019-02-17T21:59:33.698Z,94.03
2019-02-17T22:02:04.201Z,89.97
2019-02-17T22:04:35.797Z,90.47
2019-02-17T22:07:05.226Z,91.25
2019-02-17T22:09:34.934Z,89.25
2019-02-17T22:12:05.651Z,100.20
2019-02-17T22:14:35.378Z,99.50
2019-02-17T22:17:05.061Z,99.03
2019-02-17T22:19:34.766Z,90.35
2019-02-17T22:22:04.431Z,90.95
2019-02-17T22:24:34.147Z,89.72
2019-02-17T22:27:03.914Z,93.22
2019-02-17T22:29:33.694Z,116.95
2019-02-17T22:32:03.441Z,112.22
2019-02-17T22:34:33.133Z,113.25
2019-02-17T22:37:02.902Z,109.80
2019-02-17T22:39:32.644Z,114.17
2019-02-17T22:42:02.689Z,107.22
2019-02-17T22:44:32.492Z,112.12
2019-02-17T22:47:02.373Z,110.30
2019-02-17T22:49:32.229Z,108.72
2019-02-17T22:52:02.436Z,110.22
2019-02-17T22:54:32.152Z,110.90
2019-02-17T22:57:01.953Z,107.20
2019-02-17T22:59:31.739Z,116.93
2019-02-17T23:02:01.472Z,97.60
2019-02-17T23:04:31.132Z,101.50
2019-02-17T23:07:01.011Z,104.03
2019-02-17T23:09:30.998Z,99.75
2019-02-17T23:12:00.953Z,101.00
2019-02-17T23:14:30.598Z,99.90
2019-02-17T23:17:00.455Z,86.30
2019-02-17T23:19:30.319Z,93.78
2019-02-17T23:22:00.431Z,95.00
2019-02-17T23:24:30.651Z,89.85
2019-02-17T23:27:00.405Z,93.40
2019-02-17T23:29:30.279Z,90.60
2019-02-17T23:32:00.030Z,85.60
2019-02-17T23:34:29.842Z,81.85
2019-02-17T23:37:03.933Z,81.53
2019-02-17T23:39:31.003Z,86.12
2019-02-17T23:42:00.755Z,87.75
2019-02-17T23:44:30.432Z,89.50
2019-02-17T23:47:00.189Z,87.47
2019-02-17T23:49:29.854Z,85.05
2019-02-17T23:51:59.582Z,82.90
2019-02-17T23:54:29.307Z,79.32
2019-02-17T23:56:59.026Z,85.20
2019-02-17T23:59:28.722Z,87.40
